Time;durP1;ratioP1;P1;durP2;ratioP2;P2;SDS_P1;SDS_P2;PMS_P1;PMS_P2;Temp;Humidity;BMP_temperature;BMP_pressure;BME280_temperature;BME280_humidity;BME280_pressure;Samples;Min_cycle;Max_cycle;Signal;HPM_P1;HPM_P2
2022/10/13 04:02:22;;;;;;;19.17;11.27;;;11.40;99.90;;;;;;5088273;23;21044;-76
2022/10/13 04:04:49;;;;;;;16.27;11.00;;;11.40;99.90;;;;;;4908627;29;20474;-73
2022/10/13 04:07:16;;;;;;;16.67;12.80;;;11.40;99.90;;;;;;4913903;29;20469;-73
2022/10/13 04:09:42;;;;;;;15.13;11.47;;;11.50;99.90;;;;;;4920561;29;20474;-75
2022/10/13 04:12:09;;;;;;;18.80;11.07;;;11.50;99.90;;;;;;4913156;29;20542;-74
2022/10/13 04:14:36;;;;;;;21.27;11.27;;;11.60;99.90;;;;;;4908630;29;20499;-75
2022/10/13 04:17:03;;;;;;;16.83;11.57;;;11.50;99.90;;;;;;4909183;29;20467;-75
2022/10/13 04:19:31;;;;;;;16.90;9.83;;;11.60;99.90;;;;;;4907908;29;20471;-74
2022/10/13 04:21:58;;;;;;;18.10;12.33;;;11.60;99.90;;;;;;4896554;29;20487;-74
2022/10/13 04:24:24;;;;;;;14.47;10.73;;;11.60;99.90;;;;;;4901185;29;20459;-74
2022/10/13 04:26:51;;;;;;;18.40;11.20;;;11.60;99.90;;;;;;4909527;29;20834;-74
2022/10/13 04:29:18;;;;;;;16.43;10.77;;;11.60;99.90;;;;;;4909993;29;20463;-73
2022/10/13 04:31:45;;;;;;;23.23;13.03;;;11.70;99.90;;;;;;4912318;29;20490;-68
2022/10/13 04:34:11;;;;;;;17.80;11.17;;;11.70;99.90;;;;;;4912036;29;20510;-68
2022/10/13 04:36:40;;;;;;;16.00;11.77;;;11.70;99.90;;;;;;4911836;29;20470;-68
2022/10/13 04:39:06;;;;;;;15.33;11.33;;;11.60;99.90;;;;;;4911595;29;21303;-68
2022/10/13 04:41:33;;;;;;;20.93;12.50;;;11.50;99.90;;;;;;4911826;29;21131;-73
2022/10/13 04:44:03;;;;;;;20.03;12.23;;;11.60;99.90;;;;;;4910813;29;20469;-74
2022/10/13 04:46:30;;;;;;;16.77;11.17;;;11.60;99.90;;;;;;4911575;29;20459;-75
2022/10/13 04:48:57;;;;;;;24.37;12.00;;;11.60;99.90;;;;;;4911626;29;21003;-74
2022/10/13 04:51:25;;;;;;;15.97;11.87;;;11.60;99.90;;;;;;4910861;29;21288;-74
2022/10/13 04:53:56;;;;;;;16.73;10.83;;;11.60;99.90;;;;;;4911358;29;20867;-73
2022/10/13 04:56:23;;;;;;;15.00;10.93;;;11.60;99.90;;;;;;4911058;29;20450;-73
2022/10/13 04:58:49;;;;;;;17.80;11.53;;;11.70;99.90;;;;;;4911356;29;20474;-73
2022/10/13 05:01:18;;;;;;;17.67;11.10;;;11.60;99.90;;;;;;4905386;29;20501;-74
2022/10/13 05:03:45;;;;;;;16.43;11.30;;;11.70;99.90;;;;;;4901552;29;20459;-72
2022/10/13 05:06:16;;;;;;;17.03;11.90;;;11.70;99.90;;;;;;4904893;29;20463;-73
2022/10/13 05:08:43;;;;;;;16.03;11.17;;;11.70;99.90;;;;;;4911483;29;20550;-73
2022/10/13 05:11:11;;;;;;;17.77;11.10;;;11.70;99.90;;;;;;4911376;29;20875;-73
2022/10/13 05:13:38;;;;;;;15.80;11.00;;;11.70;99.90;;;;;;4907365;29;20510;-74
2022/10/13 05:16:09;;;;;;;15.83;11.33;;;11.70;99.90;;;;;;4899331;29;20475;-74
2022/10/13 05:18:36;;;;;;;17.00;11.17;;;11.70;99.90;;;;;;4900731;29;20451;-73
2022/10/13 05:21:07;;;;;;;20.70;12.40;;;11.70;99.90;;;;;;4904753;29;20494;-74
2022/10/13 05:23:34;;;;;;;14.13;10.50;;;11.60;99.90;;;;;;4911496;29;20452;-74
2022/10/13 05:26:03;;;;;;;16.47;12.63;;;11.60;99.90;;;;;;4910990;29;20470;-75
2022/10/13 05:28:31;;;;;;;15.60;11.27;;;11.60;99.90;;;;;;4911513;29;20455;-74
2022/10/13 05:30:58;;;;;;;20.67;13.03;;;11.50;99.90;;;;;;4911440;29;20487;-74
2022/10/13 05:33:28;;;;;;;20.10;13.37;;;11.50;99.90;;;;;;4911464;29;20567;-74
2022/10/13 05:35:54;;;;;;;16.97;12.50;;;11.60;99.90;;;;;;4910523;29;20572;-75
2022/10/13 05:38:21;;;;;;;18.23;13.37;;;11.60;99.90;;;;;;4911212;29;20968;-74
2022/10/13 05:40:48;;;;;;;18.90;12.87;;;11.60;99.90;;;;;;4910837;29;20479;-73
2022/10/13 05:43:14;;;;;;;20.03;11.80;;;11.60;99.90;;;;;;4911444;29;20466;-74
2022/10/13 05:45:42;;;;;;;15.67;12.17;;;11.70;99.90;;;;;;4910851;29;20467;-73
2022/10/13 05:48:09;;;;;;;15.60;12.20;;;11.70;99.90;;;;;;4911478;29;20463;-73
2022/10/13 05:50:36;;;;;;;19.30;13.17;;;11.60;99.90;;;;;;4910364;29;20479;-73
2022/10/13 05:53:03;;;;;;;16.50;11.97;;;11.70;99.90;;;;;;4904922;29;20456;-73
2022/10/13 05:55:30;;;;;;;25.50;12.33;;;11.70;99.90;;;;;;4907281;29;20470;-73
2022/10/13 05:57:57;;;;;;;21.97;12.73;;;11.70;99.90;;;;;;4907833;29;20461;-74
2022/10/13 06:00:24;;;;;;;18.60;12.60;;;11.70;99.90;;;;;;4902315;29;20459;-72
2022/10/13 06:02:59;;;;;;;16.80;12.00;;;11.60;99.90;;;;;;4903621;29;20467;-73
2022/10/13 06:05:27;;;;;;;21.23;13.10;;;11.70;99.90;;;;;;4910603;29;20463;-73
2022/10/13 06:07:54;;;;;;;20.77;13.17;;;11.60;99.90;;;;;;4911361;29;20463;-73
2022/10/13 06:10:22;;;;;;;25.07;12.63;;;11.70;99.90;;;;;;4910894;29;20467;-73
2022/10/13 06:12:48;;;;;;;18.53;12.70;;;11.80;99.90;;;;;;4910897;29;20499;-73
2022/10/13 06:15:15;;;;;;;20.50;11.90;;;11.80;99.90;;;;;;4910324;29;20504;-72
2022/10/13 06:17:42;;;;;;;17.97;12.90;;;11.80;99.90;;;;;;4910790;29;20974;-73
2022/10/13 06:20:11;;;;;;;20.27;13.40;;;11.80;99.90;;;;;;4910875;29;20463;-75
2022/10/13 06:22:39;;;;;;;17.80;13.30;;;11.80;99.90;;;;;;4910814;29;20495;-73
2022/10/13 06:25:07;;;;;;;20.50;13.60;;;11.80;99.90;;;;;;4910268;29;20459;-73
2022/10/13 06:27:34;;;;;;;21.17;14.10;;;11.90;99.90;;;;;;4910959;29;20467;-73
2022/10/13 06:30:00;;;;;;;27.90;15.70;;;11.90;99.90;;;;;;4910809;29;20478;-73
2022/10/13 06:32:27;;;;;;;26.83;15.27;;;12.00;99.90;;;;;;4909959;29;20479;-74
2022/10/13 06:34:55;;;;;;;28.77;16.30;;;12.00;99.90;;;;;;4909768;29;20502;-75
2022/10/13 06:37:23;;;;;;;20.13;14.60;;;12.00;99.90;;;;;;4910507;29;20460;-74
2022/10/13 06:39:50;;;;;;;26.00;16.10;;;12.00;99.90;;;;;;4910490;29;20467;-72
2022/10/13 06:42:17;;;;;;;25.47;15.73;;;12.00;99.90;;;;;;4910046;29;20479;-72
2022/10/13 06:44:44;;;;;;;24.90;16.80;;;12.10;99.90;;;;;;4909673;29;20459;-74
2022/10/13 06:47:10;;;;;;;25.93;15.43;;;12.10;99.90;;;;;;4910127;29;20459;-72
2022/10/13 06:49:37;;;;;;;28.43;16.90;;;12.10;99.90;;;;;;4909780;29;20463;-72
2022/10/13 06:52:05;;;;;;;26.83;15.47;;;12.20;99.90;;;;;;4909338;29;20494;-75
2022/10/13 06:54:33;;;;;;;25.43;15.63;;;12.20;99.90;;;;;;4909400;29;20499;-72
2022/10/13 06:57:00;;;;;;;23.93;14.63;;;12.20;99.90;;;;;;4909842;29;20819;-73
2022/10/13 06:59:26;;;;;;;23.27;16.47;;;12.20;99.90;;;;;;4909335;29;20464;-74
2022/10/13 07:01:53;;;;;;;27.13;15.80;;;12.20;99.90;;;;;;4909310;29;20495;-74
2022/10/13 07:04:21;;;;;;;23.83;16.40;;;12.30;99.90;;;;;;4909368;29;20645;-73
2022/10/13 07:06:49;;;;;;;24.17;15.83;;;12.30;99.90;;;;;;4910107;29;20519;-73
2022/10/13 07:09:16;;;;;;;21.80;14.07;;;12.30;99.90;;;;;;4909663;29;20494;-73
2022/10/13 07:11:45;;;;;;;21.07;14.83;;;12.30;99.90;;;;;;4909688;29;20497;-73
2022/10/13 07:14:12;;;;;;;24.00;14.60;;;12.30;99.90;;;;;;4908340;29;20853;-75
2022/10/13 07:16:39;;;;;;;21.90;14.10;;;12.30;99.90;;;;;;4908249;29;20470;-73
2022/10/13 07:19:05;;;;;;;19.10;13.67;;;12.40;99.90;;;;;;4908737;29;20861;-72
2022/10/13 07:21:32;;;;;;;22.50;14.40;;;12.40;99.90;;;;;;4909364;29;20650;-72
2022/10/13 07:23:59;;;;;;;24.87;15.53;;;12.50;99.90;;;;;;4908833;29;20460;-72
2022/10/13 07:26:26;;;;;;;25.20;16.13;;;12.50;99.90;;;;;;4909464;29;20463;-72
2022/10/13 07:28:54;;;;;;;23.20;15.70;;;12.50;99.90;;;;;;4909432;29;20470;-72
2022/10/13 07:31:21;;;;;;;29.07;16.30;;;12.50;99.90;;;;;;4909164;29;20479;-72
2022/10/13 07:33:50;;;;;;;22.67;15.10;;;12.60;99.90;;;;;;4909387;29;20503;-72
2022/10/13 07:36:17;;;;;;;26.80;16.10;;;12.60;99.90;;;;;;4908959;29;20462;-72
2022/10/13 07:38:44;;;;;;;25.73;17.23;;;12.70;99.90;;;;;;4909091;29;20462;-72
2022/10/13 07:41:13;;;;;;;24.10;15.90;;;12.70;99.90;;;;;;4909169;29;21216;-72
2022/10/13 07:43:40;;;;;;;31.13;16.20;;;12.80;99.90;;;;;;4909063;29;20465;-72
2022/10/13 07:46:10;;;;;;;29.00;15.97;;;12.80;99.90;;;;;;4908926;29;20462;-73
2022/10/13 07:48:36;;;;;;;28.37;17.60;;;12.90;99.90;;;;;;4909324;29;20452;-72
2022/10/13 07:51:06;;;;;;;28.60;15.57;;;12.90;99.90;;;;;;4909441;29;20490;-71
2022/10/13 07:53:34;;;;;;;22.67;15.07;;;13.00;99.90;;;;;;4908874;29;20591;-72
2022/10/13 07:56:01;;;;;;;22.57;15.73;;;13.00;99.90;;;;;;4908558;29;20834;-72
2022/10/13 07:58:28;;;;;;;23.83;16.03;;;13.00;99.90;;;;;;4909215;29;20464;-72
2022/10/13 08:00:59;;;;;;;26.83;16.23;;;13.00;99.90;;;;;;4909150;29;20495;-72
2022/10/13 08:03:28;;;;;;;23.30;15.63;;;13.10;99.90;;;;;;4909532;29;20473;-72
2022/10/13 08:05:58;;;;;;;27.97;15.67;;;13.20;99.90;;;;;;4905614;29;20459;-73
2022/10/13 08:08:24;;;;;;;21.90;14.77;;;13.30;99.90;;;;;;4905372;29;21292;-74
2022/10/13 08:10:51;;;;;;;24.00;15.13;;;13.40;99.90;;;;;;4913448;29;20506;-72
2022/10/13 08:13:18;;;;;;;25.07;14.90;;;13.50;99.90;;;;;;4913219;29;20459;-73
2022/10/13 08:15:45;;;;;;;23.07;13.90;;;13.50;99.90;;;;;;4912195;29;20510;-73
2022/10/13 08:18:13;;;;;;;21.80;14.23;;;13.60;99.90;;;;;;4913226;29;20549;-73
2022/10/13 08:20:43;;;;;;;26.20;15.40;;;13.70;99.90;;;;;;4912592;29;21277;-72
2022/10/13 08:23:10;;;;;;;19.37;13.10;;;13.70;99.90;;;;;;4912964;29;20466;-73
2022/10/13 08:25:38;;;;;;;20.23;14.23;;;13.80;99.90;;;;;;4912282;29;20948;-72
2022/10/13 08:28:05;;;;;;;21.87;13.90;;;13.90;99.90;;;;;;4912739;29;20463;-73
2022/10/13 08:30:32;;;;;;;19.53;13.30;;;13.90;99.90;;;;;;4912796;29;20986;-73
2022/10/13 08:32:59;;;;;;;22.43;13.60;;;14.10;99.90;;;;;;4912872;29;20466;-74
2022/10/13 08:35:26;;;;;;;17.70;12.83;;;14.20;99.90;;;;;;4911995;29;20494;-73
2022/10/13 08:37:54;;;;;;;26.23;14.43;;;14.20;99.90;;;;;;4912544;29;20451;-73
2022/10/13 08:40:22;;;;;;;21.03;13.23;;;14.30;99.90;;;;;;4912468;29;20467;-73
2022/10/13 08:42:49;;;;;;;22.07;14.70;;;14.30;99.90;;;;;;4912473;29;20949;-73
2022/10/13 08:45:21;;;;;;;20.80;13.13;;;14.50;99.90;;;;;;4911678;29;20478;-73
2022/10/13 08:47:51;;;;;;;20.37;12.70;;;14.70;99.90;;;;;;4912384;29;20462;-73
2022/10/13 08:50:21;;;;;;;19.33;11.37;;;14.70;99.90;;;;;;4912463;29;20811;-74
2022/10/13 08:52:52;;;;;;;18.00;11.97;;;14.90;99.90;;;;;;4912802;29;20463;-73
2022/10/13 08:55:29;;;;;;;17.53;13.30;;;14.90;99.90;;;;;;4911708;29;20509;-75
2022/10/13 08:57:56;;;;;;;14.73;10.70;;;15.00;99.90;;;;;;4912499;29;20443;-73
2022/10/13 09:00:23;;;;;;;15.80;11.40;;;15.10;99.90;;;;;;4911942;29;20486;-73
2022/10/13 09:02:50;;;;;;;21.10;11.33;;;15.30;99.90;;;;;;4912078;29;20471;-73
2022/10/13 09:05:27;;;;;;;19.67;12.00;;;15.30;99.90;;;;;;4911669;29;20466;-74
2022/10/13 09:07:56;;;;;;;20.67;10.90;;;15.30;99.90;;;;;;4912613;29;20452;-74
2022/10/13 09:10:24;;;;;;;18.07;11.17;;;15.40;99.90;;;;;;4911856;29;20995;-73
2022/10/13 09:12:51;;;;;;;21.43;10.17;;;15.60;99.90;;;;;;4911756;29;20463;-73
2022/10/13 09:15:18;;;;;;;17.60;10.40;;;15.80;99.90;;;;;;4909922;29;20499;-73
2022/10/13 09:17:51;;;;;;;14.60;9.90;;;16.00;99.90;;;;;;4912075;29;20467;-74
2022/10/13 09:20:20;;;;;;;14.63;10.27;;;16.30;99.90;;;;;;4911678;29;20452;-73
2022/10/13 09:23:01;;;;;;;20.27;9.83;;;16.40;99.90;;;;;;4911695;29;20467;-73
2022/10/13 09:25:38;;;;;;;11.30;8.90;;;16.40;99.90;;;;;;4910770;29;20448;-73
2022/10/13 09:28:10;;;;;;;14.63;9.80;;;16.60;99.90;;;;;;4911152;29;20783;-73
2022/10/13 09:30:40;;;;;;;18.40;9.67;;;16.80;99.90;;;;;;4911502;29;20490;-73
2022/10/13 09:33:25;;;;;;;11.60;8.70;;;16.90;99.90;;;;;;4911670;29;20454;-72
2022/10/13 09:36:09;;;;;;;12.97;8.80;;;16.80;99.90;;;;;;4910199;29;20992;-75
2022/10/13 09:38:37;;;;;;;17.70;9.47;;;16.80;99.90;;;;;;4910708;29;20506;-73
2022/10/13 09:41:12;;;;;;;13.33;10.10;;;16.90;99.90;;;;;;4911544;29;20530;-73
2022/10/13 09:43:42;;;;;;;13.90;8.03;;;16.90;99.90;;;;;;4910966;29;20971;-73
2022/10/13 09:46:18;;;;;;;17.47;9.97;;;16.70;99.90;;;;;;4910262;29;20439;-72
2022/10/13 09:48:49;;;;;;;14.40;8.97;;;16.80;99.90;;;;;;4911487;29;20473;-73
2022/10/13 09:51:32;;;;;;;20.20;8.63;;;16.90;99.90;;;;;;4910901;29;20483;-75
2022/10/13 09:53:59;;;;;;;18.90;9.10;;;17.20;99.90;;;;;;4910579;29;20459;-73
2022/10/13 09:56:34;;;;;;;21.23;8.77;;;17.20;99.90;;;;;;4910505;29;20495;-73
2022/10/13 09:59:10;;;;;;;10.70;8.10;;;17.40;99.90;;;;;;4911103;29;20518;-74
2022/10/13 10:01:41;;;;;;;15.20;9.37;;;17.30;99.90;;;;;;4910534;29;20494;-73
2022/10/13 10:04:13;;;;;;;20.27;9.00;;;17.10;99.90;;;;;;4910174;29;20451;-73
2022/10/13 10:06:40;;;;;;;13.47;8.30;;;17.00;99.90;;;;;;4910684;29;20471;-73
2022/10/13 10:09:22;;;;;;;13.80;7.70;;;17.00;99.90;;;;;;4910768;29;20475;-73
2022/10/13 10:11:53;;;;;;;12.50;8.20;;;17.10;99.90;;;;;;4911081;29;20483;-74
2022/10/13 10:14:25;;;;;;;14.60;8.10;;;17.30;99.90;;;;;;4910495;29;20451;-73
2022/10/13 10:16:59;;;;;;;15.10;8.00;;;17.50;99.90;;;;;;4910956;29;20459;-73
2022/10/13 10:19:32;;;;;;;11.00;8.57;;;17.60;99.90;;;;;;4910735;29;20459;-73
2022/10/13 10:22:05;;;;;;;15.07;8.30;;;17.50;99.90;;;;;;4910833;29;20475;-73
2022/10/13 10:24:38;;;;;;;12.90;8.47;;;17.40;99.90;;;;;;4908777;29;20463;-73
2022/10/13 10:27:15;;;;;;;13.27;8.77;;;17.20;99.90;;;;;;4909659;29;20444;-73
2022/10/13 10:29:48;;;;;;;19.23;8.20;;;17.30;99.90;;;;;;4909893;29;20474;-73
2022/10/13 10:32:29;;;;;;;15.53;7.93;;;17.50;99.90;;;;;;4910399;29;20484;-74
2022/10/13 10:35:01;;;;;;;17.40;7.27;;;17.30;99.90;;;;;;4909768;29;20523;-75
2022/10/13 10:37:45;;;;;;;15.10;7.80;;;17.30;99.90;;;;;;4910118;29;20459;-73
2022/10/13 10:40:28;;;;;;;11.63;7.30;;;17.30;99.90;;;;;;4910319;29;20502;-75
2022/10/13 10:43:24;;;;;;;11.80;7.90;;;17.40;99.90;;;;;;4910036;29;20833;-73
2022/10/13 10:45:50;;;;;;;16.97;7.30;;;17.50;99.90;;;;;;4909565;29;20459;-73
2022/10/13 10:48:22;;;;;;;12.30;8.87;;;17.60;99.90;;;;;;4910490;29;20470;-72
2022/10/13 10:50:50;;;;;;;14.27;8.07;;;17.50;99.90;;;;;;4910260;29;20488;-74
2022/10/13 10:53:26;;;;;;;11.10;7.17;;;17.40;99.90;;;;;;4909818;29;20474;-74
2022/10/13 10:55:58;;;;;;;14.50;7.27;;;17.40;99.90;;;;;;4909184;29;21033;-72
2022/10/13 10:58:36;;;;;;;11.70;7.47;;;17.50;99.90;;;;;;4910404;29;20455;-73
2022/10/13 11:01:07;;;;;;;10.70;7.27;;;17.50;99.90;;;;;;4910022;29;20487;-73
2022/10/13 11:03:43;;;;;;;17.07;8.67;;;17.50;99.90;;;;;;4910378;29;20503;-72
2022/10/13 11:06:25;;;;;;;12.80;7.07;;;17.40;99.90;;;;;;4909302;29;20463;-71
2022/10/13 11:08:54;;;;;;;11.00;7.07;;;17.40;99.90;;;;;;4910102;29;20463;-73
2022/10/13 11:11:38;;;;;;;13.63;7.60;;;17.40;99.90;;;;;;4909707;29;20485;-73
2022/10/13 11:14:26;;;;;;;9.90;7.30;;;17.30;99.90;;;;;;4909162;29;20654;-74
2022/10/13 11:17:15;;;;;;;11.37;7.27;;;17.30;99.90;;;;;;4905907;29;20479;-75
2022/10/13 11:19:42;;;;;;;11.20;7.53;;;17.10;99.90;;;;;;4898317;29;20970;-74
2022/10/13 11:22:20;;;;;;;12.73;7.40;;;17.00;99.90;;;;;;4903264;29;20487;-75
2022/10/13 11:25:23;;;;;;;12.80;6.80;;;16.90;99.90;;;;;;4908999;29;20467;-74
2022/10/13 11:27:50;;;;;;;15.87;8.03;;;17.10;99.90;;;;;;4908443;29;20467;-74
2022/10/13 11:30:41;;;;;;;13.93;7.47;;;17.20;99.90;;;;;;4909509;29;20436;-75
2022/10/13 11:33:53;;;;;;;11.63;7.37;;;17.10;99.90;;;;;;4909906;29;20814;-74
2022/10/13 11:36:49;;;;;;;10.93;7.87;;;17.20;99.90;;;;;;4908809;29;21266;-77
2022/10/13 11:40:03;;;;;;;15.17;7.80;;;17.10;99.90;;;;;;4908601;29;20483;-75
2022/10/13 11:42:53;;;;;;;16.80;6.70;;;17.10;99.90;;;;;;4901910;29;20529;-74
2022/10/13 11:45:34;;;;;;;15.40;7.53;;;17.30;99.90;;;;;;4908944;29;20463;-74
2022/10/13 11:48:30;;;;;;;11.63;7.10;;;17.30;99.90;;;;;;4909509;29;20845;-76
2022/10/13 11:51:10;;;;;;;14.00;7.77;;;17.20;99.90;;;;;;4909251;29;20490;-74
2022/10/13 11:53:43;;;;;;;10.33;7.40;;;17.10;99.90;;;;;;4909505;29;20455;-75
2022/10/13 11:56:20;;;;;;;13.33;7.63;;;17.10;99.90;;;;;;4908440;29;20503;-74
2022/10/13 11:58:47;;;;;;;13.53;7.93;;;17.10;99.90;;;;;;4909539;29;20451;-75
2022/10/13 12:01:16;;;;;;;17.30;7.57;;;17.20;99.90;;;;;;4909500;29;20495;-74
2022/10/13 12:03:47;;;;;;;10.00;6.93;;;17.30;99.90;;;;;;4909682;29;20459;-75
2022/10/13 12:06:33;;;;;;;13.47;7.87;;;17.40;99.90;;;;;;4908799;29;20492;-76
2022/10/13 12:09:02;;;;;;;14.13;7.63;;;17.50;99.90;;;;;;4909832;29;20454;-75
2022/10/13 12:11:32;;;;;;;10.97;7.67;;;17.60;99.90;;;;;;4909917;29;20483;-76
2022/10/13 12:14:01;;;;;;;13.23;7.07;;;17.50;99.90;;;;;;4908336;29;20462;-75
2022/10/13 12:16:28;;;;;;;13.50;7.37;;;17.50;99.90;;;;;;4908148;29;20503;-74
2022/10/13 12:19:09;;;;;;;12.20;7.03;;;17.60;99.90;;;;;;4908642;29;21172;-74
2022/10/13 12:21:48;;;;;;;12.90;7.20;;;17.70;99.90;;;;;;4908596;29;20497;-74
2022/10/13 12:24:15;;;;;;;10.30;7.47;;;17.80;99.90;;;;;;4907974;29;20460;-73
2022/10/13 12:26:42;;;;;;;8.97;6.07;;;17.80;99.90;;;;;;4906518;29;21078;-74
2022/10/13 12:29:13;;;;;;;13.33;6.70;;;17.90;99.90;;;;;;4908335;29;20470;-75
2022/10/13 12:31:42;;;;;;;9.53;6.50;;;17.90;99.90;;;;;;4907578;29;20485;-74
2022/10/13 12:34:19;;;;;;;12.40;7.10;;;17.90;99.90;;;;;;4906129;29;20495;-77
2022/10/13 12:36:53;;;;;;;15.40;7.60;;;18.00;99.90;;;;;;4908093;29;20498;-76
2022/10/13 12:39:21;;;;;;;17.30;7.17;;;18.20;99.90;;;;;;4907489;29;20947;-75
2022/10/13 12:41:49;;;;;;;10.90;6.10;;;18.30;99.90;;;;;;4908048;29;21368;-74
2022/10/13 12:44:21;;;;;;;11.73;6.70;;;18.40;99.90;;;;;;4907553;29;20468;-74
2022/10/13 12:46:51;;;;;;;15.17;7.23;;;18.50;99.90;;;;;;4908639;29;20469;-73
2022/10/13 12:49:22;;;;;;;13.47;7.43;;;18.50;99.90;;;;;;4908627;29;20467;-76
2022/10/13 12:51:51;;;;;;;12.50;7.47;;;18.40;99.90;;;;;;4912530;29;20569;-74
2022/10/13 12:54:25;;;;;;;9.73;6.13;;;18.30;99.90;;;;;;4911900;29;20472;-74
2022/10/13 12:56:55;;;;;;;12.80;5.77;;;18.40;99.90;;;;;;4912773;29;20864;-74
2022/10/13 12:59:23;;;;;;;8.07;6.20;;;18.50;99.90;;;;;;4912420;29;20948;-73
2022/10/13 13:01:54;;;;;;;11.23;5.53;;;18.60;99.90;;;;;;4904450;29;20491;-75
2022/10/13 13:04:41;;;;;;;11.33;5.77;;;18.80;99.90;;;;;;4912069;29;20469;-74
2022/10/13 13:07:27;;;;;;;10.27;5.97;;;19.00;99.90;;;;;;4912973;29;20455;-74
2022/10/13 13:10:03;;;;;;;10.03;5.93;;;19.20;99.90;;;;;;4912038;29;20875;-74
2022/10/13 13:12:30;;;;;;;13.07;6.60;;;19.20;99.90;;;;;;4912120;29;20486;-74
2022/10/13 13:14:58;;;;;;;9.00;5.13;;;19.30;99.90;;;;;;4911634;29;20466;-76
2022/10/13 13:17:28;;;;;;;7.73;4.90;;;19.30;99.90;;;;;;4911983;29;20533;-74
2022/10/13 13:19:57;;;;;;;8.10;4.90;;;19.30;99.90;;;;;;4912378;29;20496;-75
2022/10/13 13:22:25;;;;;;;10.87;5.77;;;19.30;99.90;;;;;;4912100;29;20483;-75
2022/10/13 13:24:52;;;;;;;11.17;5.33;;;19.30;99.90;;;;;;4911496;29;20542;-74
2022/10/13 13:27:25;;;;;;;13.63;5.80;;;19.30;99.90;;;;;;4911734;29;20990;-74
2022/10/13 13:29:53;;;;;;;11.30;5.80;;;19.30;99.90;;;;;;4912086;29;20870;-74
2022/10/13 13:32:22;;;;;;;7.40;5.30;;;19.30;99.90;;;;;;4911752;29;20491;-75
2022/10/13 13:34:49;;;;;;;10.90;5.50;;;19.40;99.90;;;;;;4910992;29;20947;-73
2022/10/13 13:37:28;;;;;;;11.43;5.73;;;19.50;99.90;;;;;;4911334;29;21235;-74
2022/10/13 13:39:55;;;;;;;6.93;5.93;;;19.60;99.90;;;;;;4911875;29;20472;-75
2022/10/13 13:42:22;;;;;;;10.37;5.70;;;19.50;99.90;;;;;;4911814;29;21055;-73
2022/10/13 13:44:49;;;;;;;7.00;5.23;;;19.50;99.90;;;;;;4910768;29;20549;-74
2022/10/13 13:47:18;;;;;;;7.50;5.43;;;19.50;99.90;;;;;;4911700;29;20455;-75
2022/10/13 13:49:46;;;;;;;6.90;4.80;;;19.40;99.90;;;;;;4911379;29;20459;-74
2022/10/13 13:52:13;;;;;;;7.20;5.03;;;19.40;99.90;;;;;;4911525;29;20483;-74
2022/10/13 13:54:41;;;;;;;13.40;6.20;;;19.30;99.90;;;;;;4910860;29;20967;-74
2022/10/13 13:57:10;;;;;;;8.40;5.20;;;19.30;99.90;;;;;;4911152;29;20505;-73
2022/10/13 13:59:37;;;;;;;7.93;5.43;;;19.30;99.90;;;;;;4911689;29;20463;-73
2022/10/13 14:02:04;;;;;;;11.63;5.97;;;19.30;99.90;;;;;;4910510;29;20497;-73
2022/10/13 14:04:31;;;;;;;12.63;5.83;;;19.30;99.90;;;;;;4910413;29;20463;-74
2022/10/13 14:06:58;;;;;;;14.17;6.30;;;19.30;99.90;;;;;;4911502;29;20547;-73
2022/10/13 14:09:24;;;;;;;10.50;5.23;;;19.30;99.90;;;;;;4910977;29;20940;-75
2022/10/13 14:11:53;;;;;;;10.00;6.10;;;19.30;99.90;;;;;;4910629;29;20498;-76
2022/10/13 14:14:19;;;;;;;9.80;5.23;;;19.30;99.90;;;;;;4910673;29;20463;-76
2022/10/13 14:16:49;;;;;;;6.73;5.20;;;19.20;99.90;;;;;;4911032;29;20531;-74
2022/10/13 14:19:16;;;;;;;7.60;4.67;;;19.10;99.90;;;;;;4911305;29;20471;-74
2022/10/13 14:21:44;;;;;;;8.53;4.90;;;19.10;99.90;;;;;;4910621;29;20490;-74
2022/10/13 14:24:11;;;;;;;11.87;5.47;;;19.10;99.90;;;;;;4909908;29;21058;-74
2022/10/13 14:26:38;;;;;;;9.93;5.90;;;19.10;99.90;;;;;;4911033;29;20463;-74
2022/10/13 14:29:06;;;;;;;11.40;5.37;;;19.00;99.90;;;;;;4909694;29;20459;-74
2022/10/13 14:31:33;;;;;;;7.80;4.80;;;19.00;99.90;;;;;;4909459;29;20485;-74
2022/10/13 14:34:00;;;;;;;13.00;6.30;;;19.00;99.90;;;;;;4910273;29;20459;-75
2022/10/13 14:36:27;;;;;;;8.20;4.90;;;18.90;99.90;;;;;;4910334;29;20499;-74
2022/10/13 14:38:54;;;;;;;6.63;5.20;;;18.90;99.90;;;;;;4910503;29;20839;-74
2022/10/13 14:41:21;;;;;;;14.27;6.37;;;18.90;99.90;;;;;;4909884;29;21051;-75
2022/10/13 14:43:51;;;;;;;8.23;4.80;;;18.80;99.90;;;;;;4910174;29;20746;-76
2022/10/13 14:46:20;;;;;;;14.10;5.07;;;18.80;99.90;;;;;;4909815;29;20460;-74
2022/10/13 14:48:46;;;;;;;7.57;5.57;;;18.80;99.90;;;;;;4910400;29;20463;-74
2022/10/13 14:51:13;;;;;;;9.07;5.67;;;18.70;99.90;;;;;;4910405;29;20835;-73
2022/10/13 14:53:42;;;;;;;13.50;5.57;;;18.70;99.90;;;;;;4910101;29;21132;-73
2022/10/13 14:56:18;;;;;;;10.97;7.00;;;18.70;99.90;;;;;;4909033;29;20513;-73
2022/10/13 14:58:45;;;;;;;11.87;5.70;;;18.60;99.90;;;;;;4891211;29;20468;-75
2022/10/13 15:01:12;;;;;;;7.77;5.07;;;18.60;99.90;;;;;;4891164;29;20496;-76
2022/10/13 15:03:40;;;;;;;9.63;5.57;;;18.50;99.90;;;;;;4899871;29;20461;-75
2022/10/13 15:06:10;;;;;;;8.93;4.73;;;18.40;99.90;;;;;;4909145;29;20474;-73
2022/10/13 15:08:37;;;;;;;10.20;4.93;;;18.40;99.90;;;;;;4909728;29;20470;-72
2022/10/13 15:11:04;;;;;;;7.80;4.70;;;18.30;99.90;;;;;;4909889;29;20484;-75
2022/10/13 15:13:31;;;;;;;6.53;4.60;;;18.20;99.90;;;;;;4910032;29;20504;-73
2022/10/13 15:15:59;;;;;;;8.90;5.40;;;18.20;99.90;;;;;;4909599;29;20463;-72
2022/10/13 15:18:27;;;;;;;12.50;6.10;;;18.30;99.90;;;;;;4909695;29;20874;-73
2022/10/13 15:20:55;;;;;;;9.57;5.50;;;18.30;99.90;;;;;;4909763;29;20511;-75
2022/10/13 15:23:22;;;;;;;9.30;5.70;;;18.20;99.90;;;;;;4904764;29;21001;-74
2022/10/13 15:25:53;;;;;;;10.17;5.60;;;18.20;99.90;;;;;;4891090;29;20460;-74
2022/10/13 15:28:20;;;;;;;13.90;7.23;;;18.20;99.90;;;;;;4895944;29;20464;-73
2022/10/13 15:30:47;;;;;;;12.00;6.97;;;18.20;99.90;;;;;;4889383;29;20476;-74
2022/10/13 15:33:13;;;;;;;17.30;7.50;;;18.10;99.90;;;;;;4890196;29;20504;-74
2022/10/13 15:35:40;;;;;;;11.83;6.23;;;18.20;99.90;;;;;;4890166;29;20471;-74
2022/10/13 15:38:09;;;;;;;10.80;6.10;;;18.20;99.90;;;;;;4890458;29;20510;-73
2022/10/13 15:40:39;;;;;;;11.23;6.17;;;18.10;99.90;;;;;;4890852;29;20466;-73
2022/10/13 15:43:06;;;;;;;12.17;6.87;;;18.10;99.90;;;;;;4890717;29;20464;-73
2022/10/13 15:45:34;;;;;;;9.73;7.03;;;18.00;99.90;;;;;;4890192;29;20471;-73
2022/10/13 15:48:00;;;;;;;14.47;6.20;;;17.90;99.90;;;;;;4893558;29;20452;-76
2022/10/13 15:50:27;;;;;;;9.60;6.23;;;17.90;99.90;;;;;;4894973;29;20973;-74
2022/10/13 15:52:54;;;;;;;21.83;6.20;;;17.90;99.90;;;;;;4900377;29;20467;-73
2022/10/13 15:55:22;;;;;;;8.60;6.60;;;17.90;99.90;;;;;;4903824;29;20459;-74
2022/10/13 15:57:49;;;;;;;8.17;6.03;;;17.90;99.90;;;;;;4901447;29;20506;-73
2022/10/13 16:00:16;;;;;;;10.27;6.17;;;17.80;99.90;;;;;;4909457;29;20932;-74
2022/10/13 16:02:44;;;;;;;13.37;6.40;;;17.70;99.90;;;;;;4909174;29;20479;-74
2022/10/13 16:05:12;;;;;;;9.80;6.00;;;17.70;99.90;;;;;;4908564;29;20467;-74
2022/10/13 16:07:40;;;;;;;11.73;6.53;;;17.70;99.90;;;;;;4909021;29;20979;-74
2022/10/13 16:10:08;;;;;;;7.70;5.33;;;17.70;99.90;;;;;;4909618;29;20561;-74
2022/10/13 16:12:38;;;;;;;9.33;6.80;;;17.70;99.90;;;;;;4909350;29;20483;-74
2022/10/13 16:15:06;;;;;;;12.23;6.23;;;17.60;99.90;;;;;;4909152;29;20992;-75
2022/10/13 16:17:33;;;;;;;11.90;7.20;;;17.50;99.90;;;;;;4909365;29;20509;-73
2022/10/13 16:20:00;;;;;;;16.47;8.37;;;17.50;99.90;;;;;;4903633;29;20813;-74
2022/10/13 16:22:27;;;;;;;11.47;7.23;;;17.50;99.90;;;;;;4905094;29;20867;-76
2022/10/13 16:24:54;;;;;;;9.20;6.90;;;17.50;99.90;;;;;;4909813;29;20486;-76
2022/10/13 16:27:21;;;;;;;12.30;7.60;;;17.50;99.90;;;;;;4913450;29;20459;-75
2022/10/13 16:29:49;;;;;;;12.50;6.90;;;17.50;99.90;;;;;;4913057;29;20459;-75
2022/10/13 16:32:16;;;;;;;12.10;7.60;;;17.50;99.90;;;;;;4913064;29;20475;-75
2022/10/13 16:34:42;;;;;;;16.00;8.10;;;17.50;99.90;;;;;;4912416;29;20466;-75
2022/10/13 16:37:09;;;;;;;15.90;8.33;;;17.50;99.90;;;;;;4912886;29;20530;-75
2022/10/13 16:39:36;;;;;;;18.03;10.20;;;17.40;99.90;;;;;;4912885;29;20467;-75
2022/10/13 16:42:03;;;;;;;29.77;17.13;;;17.40;99.90;;;;;;4912652;29;20497;-75
2022/10/13 16:44:29;;;;;;;27.20;14.57;;;17.40;99.90;;;;;;4912300;29;20470;-75
2022/10/13 16:46:59;;;;;;;17.47;10.90;;;17.30;99.90;;;;;;4912735;29;20462;-76
2022/10/13 16:49:26;;;;;;;15.97;9.20;;;17.40;99.90;;;;;;4913460;29;20506;-77